Observations

83.1 °F / 28.4 °C
ENE at 16 MPH gusting to 21 MPH
78%
75.7°F / 24.3 °C
29.68" (1005 mb)
10 mile(s)
partly cloudy
2021.12.05 0540 UTC

Observations

Surface


Raw METARs

2021/12/05 05:40
PKWA 050540Z AUTO 06014G18KT 10SM SCT026 28/24 A2968 RMK AO2 T02840243

Translated METAR

Kwajalein, Bucholz AAF, Kwajalein KMR ATOL Airport, Marshall Islands (PKWA) 08-43N 167-44E 2M
Dec 05, 2021 - 12:40 AM EST / 2021.12.05 0540 UTC
Wind: from the ENE (060 degrees) at 16 MPH (14 KT) gusting to 21 MPH (18 KT):0
Visibility: 10 mile(s):0
Sky conditions: partly cloudy
Temperature: 83.1 F (28.4 C)
Dew Point: 75.7 F (24.3 C)
Relative Humidity: 78%
Pressure (altimeter): 29.68 in. Hg (1005 hPa)
ob: PKWA 050540Z AUTO 06014G18KT 10SM SCT026 28/24 A2968 RMK AO2 T02840243
cycle: 5



Upper Air


Latest Skew-T

Skew T Diagram

Latest Data File